Minersville, Utah
Current Conditions -  °F | °C
As of 8:52 PM on Tuesday 21 Oct 2014 (Local Time) from KMLF Reporting Station
Clear Clear  
Wind Chill: 55°   Ceiling: Unl
Heat Index: 55°   Visibility: 10mi
Dew Point: 33°   Wind: 14mph
Humidity: 43%   Direction: 350°N
Pressure: 30.02"   Gusts: NA
Location:  38.21°N, 112.92°W
Report Text: KMLF 220252Z AUTO 35012KT 10SM CLR 13/01 A3002 RMK AO2 SLP128 T01280006 51027 TSNO
Loading
Personal Weather Stations






























Interactive Weather Map
Tropical Storm Tracking
New forecast layout! Learn more

10-Day Weather Forecast

Advertisements
Track Severe Weather on mobile